Weather at Dew Drop Airport

Public forecast

Using degrees Fahrenheit for public forecast. Weather courtesy of forecast.io.

Closest aviation weather report (METAR) to Dew Drop Airport

Closest report is Fort Worth Alliance Airport, 8.7 nm (16.2 km) SSE. Retrieved 2020/09/26 11:53 UTC (13 minutes ago):

KAFW 261153Z 15008KT 10SM CLR 19/16 A2992 RMK AO2 SLP121 T01890161 10206 20189 53002

Closest aviation forecast (TAF) to Dew Drop Airport

Closest forecast is Fort Worth Alliance Airport, 8.7 nm (16.2 km) SSE. Retrieved 2020/09/26 12:22 UTC (0 seconds ago):

TAF KAFW 261120Z 2612/2712 14005KT P6SM SKC FM261600 17011KT P6SM SCT040